Terminal Aerodrome Forecast
Issued by NWS

Home | Current Version | Previous Version | Text Only | Print | Product List | Glossary Off
Versions: 1 2 3 4 5 6 7 8 9 10 11 12 13 14 15 16 17 18 19

000
FTUS43 KICT 312300
TAFCNU
TAF
KCNU 312321Z 0100/0124 10005KT P6SM SCT060
     FM010200 13004KT P6SM SKC
      TEMPO 0109/0113 1SM BR SCT001
     FM011500 11004KT P6SM SCT060=

USA.gov is the U.S. government's official web portal to all federal, state and local government web resources and services.